Osprey, Florida
Current Conditions -  °F | °C
As of 1:55 PM on Sunday 23 Nov 2014 (Local Time) from KVNC Reporting Station
Clear Clear  
Wind Chill: 81°   Ceiling: Unl
Heat Index: 85°   Visibility: 7mi
Dew Point: 72°   Wind: 20mph
Humidity: 74%   Direction: 170°S
Pressure: 29.9"   Gusts: 30mph
Location:  27.2°N, 82.49°W
Report Text: KVNC 231855Z AUTO 17017G26KT 7SM CLR 27/22 A2990 RMK AO2 TSNO
Loading
Personal Weather Stations






























Interactive Weather Map New forecast layout! Learn more

10-Day Weather Forecast

Advertisements
Track Severe Weather on mobile